createdAt,value
2019-05-17T00:00:50.501Z,29.03
2019-05-17T00:06:57.052Z,27.83
2019-05-17T00:13:03.088Z,26.60
2019-05-17T00:19:09.461Z,28.00
2019-05-17T00:25:16.970Z,27.70
2019-05-17T00:31:22.809Z,27.03
2019-05-17T00:37:30.360Z,27.53
2019-05-17T00:43:36.825Z,28.47
2019-05-17T00:49:43.119Z,29.33
2019-05-17T00:55:49.138Z,28.67
2019-05-17T01:01:56.229Z,30.63
2019-05-17T01:08:02.243Z,28.83
2019-05-17T01:14:07.965Z,29.53
2019-05-17T01:20:14.230Z,28.67
2019-05-17T01:26:20.194Z,29.20
2019-05-17T01:32:26.643Z,30.50
2019-05-17T01:38:32.964Z,30.97
2019-05-17T01:44:38.769Z,29.33
2019-05-17T01:50:46.457Z,29.70
2019-05-17T01:56:52.373Z,29.33
2019-05-17T02:02:58.577Z,28.20
2019-05-17T02:09:06.353Z,29.70
2019-05-17T02:15:16.471Z,29.87
2019-05-17T02:21:22.710Z,29.37
2019-05-17T02:27:34.784Z,28.90
2019-05-17T02:33:36.220Z,30.70
2019-05-17T02:39:56.574Z,30.30
2019-05-17T02:45:52.504Z,32.37
2019-05-17T02:51:57.359Z,32.97
2019-05-17T02:58:03.661Z,32.90
2019-05-17T03:04:12.811Z,33.27
2019-05-17T03:10:27.516Z,34.17
2019-05-17T03:16:26.315Z,33.13
2019-05-17T03:22:33.192Z,34.33
2019-05-17T03:28:42.447Z,34.97
2019-05-17T03:34:55.305Z,35.70
2019-05-17T03:41:09.465Z,34.97
2019-05-17T03:47:04.688Z,33.57
2019-05-17T03:53:13.149Z,34.00
2019-05-17T03:59:20.569Z,33.77
2019-05-17T04:05:33.777Z,35.60
2019-05-17T04:11:42.708Z,33.63
2019-05-17T04:17:47.495Z,33.87
2019-05-17T04:23:53.964Z,34.20
2019-05-17T04:29:59.913Z,34.93
2019-05-17T04:36:06.034Z,32.60
2019-05-17T04:42:13.615Z,32.93
2019-05-17T04:48:23.011Z,32.27
2019-05-17T04:54:27.282Z,29.80
2019-05-17T05:00:34.012Z,29.00
2019-05-17T05:06:43.405Z,29.97
2019-05-17T05:12:48.306Z,27.07
2019-05-17T05:18:55.402Z,26.00
2019-05-17T05:25:02.182Z,26.17
2019-05-17T05:31:08.149Z,25.27
2019-05-17T05:37:14.121Z,24.23
2019-05-17T05:43:22.359Z,25.13
2019-05-17T05:49:27.585Z,23.73
2019-05-17T05:55:33.448Z,23.27
2019-05-17T06:01:41.889Z,22.23
2019-05-17T06:07:48.591Z,21.47
2019-05-17T06:13:54.343Z,20.10
2019-05-17T06:20:02.381Z,21.57
2019-05-17T06:26:08.035Z,18.97
2019-05-17T06:32:13.870Z,17.70
2019-05-17T06:38:19.598Z,17.37
2019-05-17T06:44:25.373Z,16.93
2019-05-17T06:50:32.729Z,17.30
2019-05-17T06:56:38.623Z,16.90
2019-05-17T07:02:44.402Z,16.60
2019-05-17T07:08:50.189Z,15.00
2019-05-17T07:14:58.331Z,15.43
2019-05-17T07:21:03.743Z,16.13
2019-05-17T07:27:09.962Z,15.10
2019-05-17T07:33:15.981Z,14.80
2019-05-17T07:39:22.347Z,15.30
2019-05-17T07:45:29.554Z,14.53
2019-05-17T07:51:35.576Z,14.03
2019-05-17T07:57:41.803Z,12.80
2019-05-17T08:03:50.093Z,12.23
2019-05-17T08:09:56.188Z,12.70
2019-05-17T08:16:02.159Z,11.13
2019-05-17T08:22:29.369Z,9.13
2019-05-17T08:28:35.200Z,9.03
2019-05-17T08:34:40.967Z,8.57
2019-05-17T08:40:47.113Z,9.20
2019-05-17T08:46:53.222Z,8.93
2019-05-17T08:52:59.927Z,8.57
2019-05-17T08:59:06.159Z,8.83
2019-05-17T09:05:12.019Z,8.53
2019-05-17T09:11:19.672Z,7.83
2019-05-17T09:17:25.499Z,7.97
2019-05-17T09:23:31.501Z,7.30
2019-05-17T09:29:37.279Z,7.07
2019-05-17T09:35:42.999Z,7.00
2019-05-17T09:41:50.309Z,6.80
2019-05-17T09:47:56.173Z,6.50
2019-05-17T09:54:01.942Z,6.77
2019-05-17T10:00:09.920Z,7.30
2019-05-17T10:06:15.926Z,6.97
2019-05-17T10:12:22.213Z,6.50
2019-05-17T10:18:29.585Z,5.77
2019-05-17T10:24:38.971Z,6.50
2019-05-17T10:30:43.232Z,7.23
2019-05-17T10:36:50.644Z,5.87
2019-05-17T10:42:56.566Z,5.33
2019-05-17T10:49:02.279Z,5.50
2019-05-17T10:55:10.412Z,5.40
2019-05-17T11:01:15.652Z,5.17
2019-05-17T11:07:21.462Z,4.93
2019-05-17T11:13:27.304Z,4.63
2019-05-17T11:19:33.075Z,4.60
2019-05-17T11:25:45.095Z,4.50
2019-05-17T11:31:46.363Z,4.30
2019-05-17T11:37:52.251Z,4.97
2019-05-17T11:43:58.274Z,4.80
2019-05-17T11:50:04.418Z,4.90
2019-05-17T11:56:10.539Z,5.07
2019-05-17T12:02:21.276Z,5.00
2019-05-17T12:08:26.111Z,6.27
2019-05-17T12:14:31.905Z,5.27
2019-05-17T12:20:37.682Z,6.37
2019-05-17T12:26:47.206Z,6.10
2019-05-17T12:32:52.841Z,6.57
2019-05-17T12:38:58.760Z,6.93
2019-05-17T12:45:04.861Z,7.53
2019-05-17T12:51:10.716Z,6.33
2019-05-17T12:57:16.619Z,5.43
2019-05-17T13:03:22.441Z,6.50
2019-05-17T13:09:28.283Z,6.00
2019-05-17T13:15:34.023Z,6.00
2019-05-17T13:21:39.789Z,7.10
2019-05-17T13:27:45.903Z,9.93
2019-05-17T13:33:51.877Z,6.70
2019-05-17T13:39:57.601Z,5.57
2019-05-17T13:46:03.337Z,5.97
2019-05-17T13:52:09.057Z,6.10
2019-05-17T13:58:14.835Z,5.73
2019-05-17T14:04:20.670Z,5.93
2019-05-17T14:10:29.897Z,5.77
2019-05-17T14:16:34.952Z,5.47
2019-05-17T14:22:40.825Z,6.80
2019-05-17T14:28:46.795Z,9.20
2019-05-17T14:34:52.916Z,8.40
2019-05-17T14:41:08.209Z,8.03
2019-05-17T14:47:06.408Z,7.50
2019-05-17T14:53:12.356Z,7.70
2019-05-17T14:59:18.184Z,7.70
2019-05-17T15:05:23.946Z,8.37
2019-05-17T15:11:29.737Z,12.13
2019-05-17T15:17:35.545Z,8.47
2019-05-17T15:23:41.264Z,8.60
2019-05-17T15:29:47.371Z,8.77
2019-05-17T15:35:53.252Z,9.00
2019-05-17T15:41:59.247Z,9.97
2019-05-17T15:48:05.041Z,9.77
2019-05-17T15:54:11.055Z,10.47
2019-05-17T16:00:17.067Z,11.93
2019-05-17T16:06:23.286Z,12.20
2019-05-17T16:12:29.042Z,12.37
2019-05-17T16:18:34.829Z,12.43
2019-05-17T16:24:40.621Z,11.73
2019-05-17T16:30:46.418Z,12.20
2019-05-17T16:36:52.163Z,11.57
2019-05-17T16:42:58.001Z,11.47
2019-05-17T16:49:03.740Z,11.80
2019-05-17T16:55:09.583Z,12.47
2019-05-17T17:01:15.412Z,13.13
2019-05-17T17:07:21.192Z,13.27
2019-05-17T17:13:33.244Z,13.30
2019-05-17T17:19:34.691Z,13.00
2019-05-17T17:25:40.595Z,13.70
2019-05-17T17:31:46.484Z,14.47
2019-05-17T17:37:52.485Z,15.53
2019-05-17T17:43:59.540Z,15.33
2019-05-17T17:50:05.633Z,15.27
2019-05-17T17:56:13.532Z,15.17
2019-05-17T18:02:19.181Z,15.37
2019-05-17T18:08:24.975Z,15.97
2019-05-17T18:14:31.047Z,17.30
2019-05-17T18:20:37.445Z,17.47
2019-05-17T18:26:43.685Z,16.47
2019-05-17T18:32:49.720Z,17.90
2019-05-17T18:38:56.539Z,16.57
2019-05-17T18:45:02.357Z,17.10
2019-05-17T18:51:08.228Z,16.37
2019-05-17T18:57:14.819Z,16.87
2019-05-17T19:03:20.664Z,16.17
2019-05-17T19:09:26.733Z,17.87
2019-05-17T19:15:32.745Z,18.40
2019-05-17T19:21:38.570Z,21.10
2019-05-17T19:27:44.479Z,19.93
2019-05-17T19:33:50.628Z,19.43
2019-05-17T19:39:57.890Z,18.03
2019-05-17T19:46:06.419Z,14.43
2019-05-17T19:52:12.407Z,15.37
2019-05-17T19:58:18.526Z,15.33
2019-05-17T20:04:24.391Z,17.90
2019-05-17T20:10:30.228Z,16.87
2019-05-17T20:16:36.009Z,14.10
2019-05-17T20:22:42.132Z,14.63
2019-05-17T20:28:48.704Z,16.13
2019-05-17T20:34:54.726Z,17.87
2019-05-17T20:41:00.751Z,18.47
2019-05-17T20:47:06.744Z,19.07
2019-05-17T20:53:19.054Z,15.43
2019-05-17T20:59:20.579Z,13.07
2019-05-17T21:05:26.440Z,14.40
2019-05-17T21:11:32.227Z,14.10
2019-05-17T21:17:38.006Z,13.87
2019-05-17T21:23:43.899Z,14.03
2019-05-17T21:29:50.130Z,14.53
2019-05-17T21:35:56.484Z,14.67
2019-05-17T21:42:02.320Z,15.77
2019-05-17T21:48:08.137Z,14.07
2019-05-17T21:54:14.044Z,14.47
2019-05-17T22:01:07.878Z,12.03
2019-05-17T22:07:13.988Z,12.40
2019-05-17T22:13:19.964Z,12.03
2019-05-17T22:19:26.013Z,12.13
2019-05-17T22:25:32.006Z,11.77
2019-05-17T22:31:39.027Z,11.43
2019-05-17T22:37:45.208Z,10.77
2019-05-17T22:43:51.160Z,12.30
2019-05-17T22:49:57.070Z,12.27
2019-05-17T22:56:03.070Z,12.33
2019-05-17T23:02:08.865Z,12.40
2019-05-17T23:08:14.930Z,13.30
2019-05-17T23:14:20.873Z,13.93
2019-05-17T23:20:33.323Z,14.83
2019-05-17T23:26:39.136Z,15.60
2019-05-17T23:32:44.909Z,16.37
2019-05-17T23:38:51.097Z,15.27
2019-05-17T23:44:57.219Z,15.80
2019-05-17T23:51:03.057Z,16.40
2019-05-17T23:57:09.018Z,15.90
